Terminal Aerodrome Forecast
Issued by NWS Jackson, MS

Home | Current Version | Previous Version | Text Only | Print | Product List | Glossary On
Versions: 1 2 3 4 5 6 7 8 9 10 11 12 13 14 15 16 17
000
FTUS44 KJAN 030119 AAA
TAFGWO
TAF AMD
KGWO 030119Z 0301/0324 00000KT P6SM OVC023
     FM030800 35002KT P6SM OVC004
     FM031400 03004KT P6SM BKN040=

USA.gov is the U.S. government's official web portal to all federal, state and local government web resources and services.